Time;durP1;ratioP1;P1;durP2;ratioP2;P2;SDS_P1;SDS_P2;PMS_P1;PMS_P2;Temp;Humidity;BMP_temperature;BMP_pressure;BME280_temperature;BME280_humidity;BME280_pressure;Samples;Min_cycle;Max_cycle;Signal;HPM_P1;HPM_P2
2021/12/12 00:01:07;;;;;;;43.80;22.45;;;3.10;97.70;;;;;;4936011;29;20039;-63
2021/12/12 00:03:41;;;;;;;45.13;22.50;;;3.00;97.80;;;;;;4938313;29;20115;-63
2021/12/12 00:06:11;;;;;;;41.55;22.08;;;3.00;97.80;;;;;;4926371;29;20059;-63
2021/12/12 00:08:38;;;;;;;48.80;24.13;;;3.00;97.80;;;;;;4934768;29;20039;-63
2021/12/12 00:11:09;;;;;;;44.47;23.00;;;2.90;97.70;;;;;;4934292;29;20171;-63
2021/12/12 00:13:43;;;;;;;40.75;22.13;;;2.90;97.80;;;;;;4935644;29;20411;-63
2021/12/12 00:16:09;;;;;;;44.25;23.60;;;2.90;97.90;;;;;;4935316;29;20047;-63
2021/12/12 00:18:36;;;;;;;47.03;22.23;;;2.90;97.90;;;;;;4935856;29;20043;-64
2021/12/12 00:21:04;;;;;;;43.88;23.15;;;2.80;97.90;;;;;;4934411;29;20478;-64
2021/12/12 00:23:30;;;;;;;46.90;22.48;;;2.90;97.90;;;;;;4935477;29;20023;-63
2021/12/12 00:25:58;;;;;;;45.17;23.67;;;2.80;97.90;;;;;;4935189;29;20042;-63
2021/12/12 00:28:25;;;;;;;46.78;22.65;;;2.80;97.90;;;;;;4935221;29;20035;-62
2021/12/12 00:30:54;;;;;;;40.58;22.15;;;2.80;97.90;;;;;;4934418;29;20035;-62
2021/12/12 00:33:21;;;;;;;43.72;20.52;;;2.80;97.90;;;;;;4935123;29;20036;-63
2021/12/12 00:35:48;;;;;;;42.20;21.65;;;2.80;98.00;;;;;;4934741;29;20039;-62
2021/12/12 00:38:20;;;;;;;43.35;22.02;;;2.90;97.90;;;;;;4935099;29;20028;-63
2021/12/12 00:40:50;;;;;;;40.30;21.88;;;2.90;97.90;;;;;;4934591;29;20131;-64
2021/12/12 00:43:25;;;;;;;44.47;22.42;;;2.90;97.90;;;;;;4915738;29;20064;-64
2021/12/12 00:45:55;;;;;;;39.97;21.47;;;2.80;97.90;;;;;;4923448;29;20143;-63
2021/12/12 00:48:23;;;;;;;44.63;19.98;;;2.80;97.90;;;;;;4934714;29;20363;-63
2021/12/12 00:50:48;;;;;;;37.50;20.83;;;2.80;97.90;;;;;;4937748;29;20122;-63
2021/12/12 00:53:14;;;;;;;38.17;20.85;;;2.90;98.00;;;;;;4935053;29;20179;-63
2021/12/12 00:55:41;;;;;;;38.95;20.98;;;2.90;98.00;;;;;;4934211;29;20028;-63
2021/12/12 00:58:10;;;;;;;39.35;20.40;;;2.90;97.90;;;;;;4934916;29;20279;-62
2021/12/12 01:00:42;;;;;;;42.95;20.58;;;2.90;98.00;;;;;;4933940;29;20032;-62
2021/12/12 01:03:10;;;;;;;35.42;20.88;;;2.90;98.00;;;;;;4934883;29;20627;-63
2021/12/12 01:05:38;;;;;;;33.17;19.35;;;3.00;98.00;;;;;;4934214;29;20055;-63
2021/12/12 01:08:06;;;;;;;38.60;21.20;;;3.00;98.00;;;;;;4935172;28;20032;-63
2021/12/12 01:10:45;;;;;;;43.30;20.70;;;3.00;98.00;;;;;;4923506;29;20035;-63
2021/12/12 01:13:11;;;;;;;37.67;20.75;;;3.00;98.00;;;;;;4934234;29;20036;-62
2021/12/12 01:15:43;;;;;;;34.88;20.08;;;3.00;98.00;;;;;;4933272;29;20392;-62
2021/12/12 01:18:16;;;;;;;41.38;20.83;;;3.10;98.00;;;;;;4935157;29;20040;-63
2021/12/12 01:20:51;;;;;;;34.65;21.70;;;3.10;98.00;;;;;;4934235;29;20031;-62
2021/12/12 01:23:21;;;;;;;36.67;19.55;;;3.00;97.90;;;;;;4933831;29;20110;-62
2021/12/12 01:25:48;;;;;;;35.60;19.92;;;3.10;98.00;;;;;;4933985;29;20043;-62
2021/12/12 01:28:19;;;;;;;38.58;21.10;;;3.10;97.90;;;;;;4933955;28;20049;-62
2021/12/12 01:30:45;;;;;;;36.80;20.35;;;3.10;97.90;;;;;;4934043;29;20032;-62
2021/12/12 01:33:12;;;;;;;39.88;19.90;;;3.20;97.90;;;;;;4934063;28;20087;-63
2021/12/12 01:35:39;;;;;;;33.65;19.30;;;3.10;97.90;;;;;;4929464;29;20047;-62
2021/12/12 01:40:59;;;;;;;36.47;21.63;;;3.20;97.80;;;;;;4939514;29;20048;-62
2021/12/12 01:43:30;;;;;;;35.75;18.80;;;3.20;97.70;;;;;;4933929;29;20043;-63
2021/12/12 01:46:13;;;;;;;34.28;18.20;;;3.20;97.70;;;;;;4936234;29;20386;-64
2021/12/12 01:48:53;;;;;;;37.55;21.50;;;3.20;97.60;;;;;;4933533;29;20035;-63
2021/12/12 01:51:21;;;;;;;34.63;21.02;;;3.10;97.60;;;;;;4933858;29;20052;-63
2021/12/12 01:53:51;;;;;;;37.47;20.30;;;3.10;97.60;;;;;;4932104;29;20062;-62
2021/12/12 01:56:21;;;;;;;35.50;20.13;;;3.10;97.60;;;;;;4932491;29;20383;-63
2021/12/12 01:58:51;;;;;;;33.60;18.50;;;3.10;97.60;;;;;;4934078;29;20046;-63
2021/12/12 02:01:21;;;;;;;33.80;19.75;;;3.00;97.60;;;;;;4932794;29;20051;-63
2021/12/12 02:04:01;;;;;;;34.33;19.80;;;3.00;97.60;;;;;;4934528;29;20028;-63
2021/12/12 02:06:27;;;;;;;35.10;20.35;;;3.10;97.60;;;;;;4929725;29;20034;-63
2021/12/12 02:08:54;;;;;;;35.20;19.75;;;3.10;97.50;;;;;;4934416;29;20032;-63
2021/12/12 02:11:25;;;;;;;34.55;19.95;;;3.10;97.60;;;;;;4932647;29;20484;-63
2021/12/12 02:13:56;;;;;;;34.05;19.33;;;3.10;97.50;;;;;;4929305;29;20384;-62
2021/12/12 02:16:24;;;;;;;34.05;20.27;;;3.10;97.50;;;;;;4947868;28;20063;-62
2021/12/12 02:18:52;;;;;;;34.17;19.65;;;3.00;97.40;;;;;;4933214;29;20530;-63
2021/12/12 02:21:32;;;;;;;37.22;20.23;;;3.00;97.40;;;;;;4932648;29;20023;-62
2021/12/12 02:37:34;;;;;;;32.58;18.80;;;2.90;97.40;;;;;;4936953;29;20546;-62
2021/12/12 02:40:05;;;;;;;31.77;18.50;;;2.90;97.40;;;;;;4937178;29;20395;-63
2021/12/12 02:42:31;;;;;;;36.08;19.38;;;2.80;97.40;;;;;;4936534;29;20040;-62
2021/12/12 02:44:59;;;;;;;36.40;20.20;;;2.80;97.40;;;;;;4936506;29;20431;-62
2021/12/12 02:47:33;;;;;;;33.88;20.15;;;2.80;97.40;;;;;;4951826;28;20031;-63
2021/12/12 02:50:11;;;;;;;33.47;18.65;;;2.80;97.40;;;;;;4940241;29;20475;-63
2021/12/12 02:52:43;;;;;;;35.88;20.50;;;2.80;97.60;;;;;;4951126;29;20051;-62
2021/12/12 02:55:14;;;;;;;31.25;18.23;;;2.80;97.50;;;;;;4936518;29;20452;-63
2021/12/12 02:57:40;;;;;;;33.22;19.00;;;2.80;97.50;;;;;;4937272;29;20039;-64
2021/12/12 03:00:09;;;;;;;32.08;19.13;;;2.80;97.50;;;;;;4937706;29;20538;-64
2021/12/12 03:02:43;;;;;;;38.30;19.60;;;2.80;97.40;;;;;;4936954;29;20035;-63
2021/12/12 03:05:10;;;;;;;30.80;18.60;;;2.80;97.40;;;;;;4936492;29;20451;-64
2021/12/12 03:07:36;;;;;;;32.75;19.25;;;2.80;97.40;;;;;;4936293;28;20122;-64
2021/12/12 03:10:06;;;;;;;34.83;19.73;;;2.80;97.40;;;;;;4937142;29;20118;-64
2021/12/12 03:12:34;;;;;;;30.95;18.75;;;2.80;97.40;;;;;;4935667;29;20360;-63
2021/12/12 03:15:11;;;;;;;34.08;18.33;;;2.80;97.40;;;;;;4936623;29;20118;-63
2021/12/12 03:17:39;;;;;;;30.55;18.92;;;2.80;97.40;;;;;;4936660;29;20040;-63
2021/12/12 03:20:12;;;;;;;33.28;18.13;;;2.80;97.40;;;;;;4937157;29;20388;-63
2021/12/12 03:22:38;;;;;;;30.80;17.90;;;2.80;97.50;;;;;;4935713;29;20122;-63
2021/12/12 03:25:07;;;;;;;28.55;17.55;;;2.80;97.40;;;;;;4936709;29;20106;-63
2021/12/12 03:27:32;;;;;;;37.70;19.92;;;2.80;97.40;;;;;;4936925;29;20060;-63
2021/12/12 03:29:58;;;;;;;32.67;19.27;;;2.80;97.40;;;;;;4937401;29;20024;-63
2021/12/12 03:32:24;;;;;;;34.97;19.45;;;2.80;97.40;;;;;;4936781;29;20031;-63
2021/12/12 03:34:54;;;;;;;31.77;18.23;;;2.80;97.40;;;;;;4935000;29;20020;-63
2021/12/12 03:37:22;;;;;;;36.92;19.25;;;2.80;97.40;;;;;;4936151;29;20027;-63
2021/12/12 03:39:51;;;;;;;32.75;18.27;;;2.80;97.40;;;;;;4936944;29;20083;-63
2021/12/12 03:42:22;;;;;;;29.48;19.02;;;2.80;97.40;;;;;;4935019;29;20032;-63
2021/12/12 03:44:48;;;;;;;34.55;18.23;;;2.80;97.40;;;;;;4936002;29;20036;-63
2021/12/12 03:47:26;;;;;;;33.85;19.00;;;2.80;97.40;;;;;;4934986;29;20074;-63
2021/12/12 03:49:53;;;;;;;36.13;18.48;;;2.80;97.40;;;;;;4936668;29;20035;-63
2021/12/12 03:52:20;;;;;;;31.02;17.65;;;2.80;97.40;;;;;;4935004;29;20396;-63
2021/12/12 03:54:47;;;;;;;31.50;18.35;;;2.80;97.40;;;;;;4946319;29;20422;-63
2021/12/12 03:57:16;;;;;;;30.73;17.67;;;2.80;97.40;;;;;;4936959;28;20033;-63
2021/12/12 03:59:42;;;;;;;32.03;19.35;;;2.90;97.40;;;;;;4935360;29;20391;-63
2021/12/12 04:02:07;;;;;;;31.75;18.42;;;2.90;97.40;;;;;;4934444;29;20455;-63
2021/12/12 04:04:39;;;;;;;35.75;19.83;;;2.90;97.40;;;;;;4937772;29;20190;-63
2021/12/12 04:07:09;;;;;;;31.85;18.48;;;2.90;97.40;;;;;;4938822;29;20027;-63
2021/12/12 04:09:36;;;;;;;32.97;19.30;;;2.90;97.30;;;;;;4941494;29;20043;-64
2021/12/12 04:12:06;;;;;;;36.42;19.13;;;2.90;97.30;;;;;;4943543;29;20032;-64
2021/12/12 04:14:32;;;;;;;27.80;17.23;;;3.00;97.30;;;;;;4938719;29;20095;-64
2021/12/12 04:17:03;;;;;;;32.90;18.52;;;3.00;97.30;;;;;;4937702;29;20034;-63
2021/12/12 04:19:29;;;;;;;30.85;18.23;;;3.00;97.30;;;;;;4938360;29;20044;-63
2021/12/12 04:21:55;;;;;;;32.47;17.95;;;3.00;97.30;;;;;;4943226;29;20107;-63
2021/12/12 04:24:25;;;;;;;30.65;18.00;;;3.00;97.20;;;;;;4942909;29;20083;-63
2021/12/12 04:26:52;;;;;;;34.22;17.95;;;3.00;97.20;;;;;;4934717;29;20436;-63
2021/12/12 04:29:28;;;;;;;29.30;18.85;;;3.00;97.20;;;;;;4934878;28;20487;-64
2021/12/12 04:31:57;;;;;;;30.00;17.88;;;3.00;97.20;;;;;;4934355;29;20523;-63
2021/12/12 04:34:31;;;;;;;32.38;17.63;;;3.00;97.10;;;;;;4950904;28;20523;-63
2021/12/12 04:37:00;;;;;;;28.42;17.98;;;3.10;97.10;;;;;;4935019;29;20034;-63
2021/12/12 04:39:29;;;;;;;30.42;17.40;;;3.10;97.10;;;;;;4934683;29;20046;-63
2021/12/12 04:42:10;;;;;;;32.30;17.63;;;3.10;97.10;;;;;;4934425;29;20028;-63
2021/12/12 04:44:40;;;;;;;28.35;17.30;;;3.10;97.10;;;;;;4935809;29;20040;-63
2021/12/12 04:50:03;;;;;;;31.13;18.33;;;3.10;97.20;;;;;;4934524;29;20035;-63
2021/12/12 04:52:54;;;;;;;28.30;17.88;;;3.20;97.20;;;;;;4934160;29;20471;-63
2021/12/12 04:55:29;;;;;;;27.52;17.15;;;3.20;97.20;;;;;;4934658;29;20036;-63
2021/12/12 04:58:06;;;;;;;;;;;3.20;97.20;;;;;;4925330;29;20082;-63
2021/12/12 05:00:40;;;;;;;29.77;16.70;;;3.30;97.20;;;;;;4932708;29;19976;-63
2021/12/12 05:03:30;;;;;;;30.75;17.48;;;3.30;97.20;;;;;;4934267;29;20032;-64
2021/12/12 05:06:01;;;;;;;31.10;17.45;;;3.40;97.20;;;;;;4933466;29;20115;-63
2021/12/12 05:08:38;;;;;;;27.58;16.15;;;3.40;97.20;;;;;;4935269;29;20078;-63
2021/12/12 05:11:11;;;;;;;26.52;16.80;;;3.40;97.20;;;;;;4934775;29;20079;-63
2021/12/12 05:13:50;;;;;;;29.45;17.42;;;3.40;97.20;;;;;;4933591;29;20063;-63
2021/12/12 05:16:29;;;;;;;29.60;17.23;;;3.40;97.20;;;;;;4932918;29;20042;-63
2021/12/12 05:19:12;;;;;;;28.17;16.88;;;3.40;97.10;;;;;;4933573;29;20040;-63
2021/12/12 05:21:43;;;;;;;28.60;17.83;;;3.40;97.10;;;;;;4933565;29;20043;-63
2021/12/12 05:24:12;;;;;;;29.83;19.42;;;3.40;97.20;;;;;;4935271;29;20059;-62
2021/12/12 05:26:49;;;;;;;31.00;17.63;;;3.50;97.20;;;;;;4933946;29;20035;-62
2021/12/12 05:29:21;;;;;;;28.10;17.70;;;3.50;97.20;;;;;;4934667;29;20673;-62
2021/12/12 05:31:50;;;;;;;29.58;18.00;;;3.50;97.20;;;;;;4934288;29;20040;-62
2021/12/12 05:34:18;;;;;;;33.28;17.42;;;3.50;97.20;;;;;;4935005;29;20067;-62
2021/12/12 05:36:45;;;;;;;28.77;17.45;;;3.60;97.20;;;;;;4933033;29;20023;-63
2021/12/12 05:39:11;;;;;;;27.70;17.42;;;3.60;97.10;;;;;;4934326;28;20036;-63
2021/12/12 05:41:37;;;;;;;31.98;19.13;;;3.60;97.10;;;;;;4933102;29;20023;-63
2021/12/12 05:44:04;;;;;;;29.70;17.77;;;3.60;97.10;;;;;;4934284;29;20114;-63
2021/12/12 05:46:30;;;;;;;28.02;18.05;;;3.60;97.00;;;;;;4934416;29;20032;-62
2021/12/12 05:48:59;;;;;;;29.38;17.83;;;3.60;97.00;;;;;;4934104;29;20031;-62
2021/12/12 05:51:25;;;;;;;32.90;18.42;;;3.60;96.90;;;;;;4932736;29;20047;-62
2021/12/12 05:53:55;;;;;;;28.67;17.73;;;3.60;96.90;;;;;;4933500;29;20164;-63
2021/12/12 05:56:23;;;;;;;30.98;18.70;;;3.60;96.90;;;;;;4932923;29;20123;-63
2021/12/12 05:58:50;;;;;;;31.05;18.23;;;3.60;96.90;;;;;;4933896;29;20122;-62
2021/12/12 06:01:16;;;;;;;27.60;17.63;;;3.60;96.90;;;;;;4934067;29;20070;-62
2021/12/12 06:03:42;;;;;;;30.15;18.75;;;3.60;96.90;;;;;;4934284;29;20028;-63
2021/12/12 06:06:14;;;;;;;31.05;17.92;;;3.60;96.80;;;;;;4931973;29;20043;-63
2021/12/12 06:08:42;;;;;;;32.72;18.05;;;3.60;96.90;;;;;;4932717;29;20035;-63
2021/12/12 06:11:08;;;;;;;27.85;17.58;;;3.60;96.90;;;;;;4932003;29;20036;-63
2021/12/12 06:13:37;;;;;;;31.27;19.25;;;3.50;96.80;;;;;;4932912;29;20471;-63
2021/12/12 06:16:03;;;;;;;33.30;17.85;;;3.50;96.80;;;;;;4933332;29;20024;-63
2021/12/12 06:18:31;;;;;;;31.13;18.80;;;3.40;96.80;;;;;;4943636;28;20408;-63
2021/12/12 06:20:57;;;;;;;31.25;18.15;;;3.40;96.80;;;;;;4933145;29;20027;-63
2021/12/12 06:23:25;;;;;;;29.58;18.48;;;3.40;96.80;;;;;;4933384;29;20046;-63
2021/12/12 06:25:51;;;;;;;26.73;17.75;;;3.40;96.80;;;;;;4931915;29;20027;-62
2021/12/12 06:28:26;;;;;;;29.27;18.42;;;3.40;96.90;;;;;;4933789;29;20028;-63
2021/12/12 06:30:52;;;;;;;32.42;18.98;;;3.40;96.80;;;;;;4932801;29;20070;-64
2021/12/12 06:33:18;;;;;;;30.38;18.15;;;3.40;96.80;;;;;;4933054;29;20028;-63
2021/12/12 06:35:44;;;;;;;34.30;18.15;;;3.40;96.80;;;;;;4932710;29;20062;-63
2021/12/12 06:38:12;;;;;;;32.85;17.60;;;3.40;96.80;;;;;;4934077;29;20031;-63
2021/12/12 06:40:38;;;;;;;29.55;17.20;;;3.40;96.80;;;;;;4933000;29;20047;-63
2021/12/12 06:43:07;;;;;;;29.02;17.67;;;3.40;96.80;;;;;;4934099;29;20036;-63
2021/12/12 06:45:33;;;;;;;31.25;18.20;;;3.40;96.80;;;;;;4934202;29;20178;-63
2021/12/12 06:47:59;;;;;;;29.60;18.40;;;3.40;96.80;;;;;;4935670;29;20118;-62
2021/12/12 06:50:26;;;;;;;26.88;17.67;;;3.40;96.80;;;;;;4932028;29;20090;-63
2021/12/12 06:52:54;;;;;;;27.65;17.60;;;3.40;96.80;;;;;;4932586;29;20079;-63
2021/12/12 06:55:20;;;;;;;31.17;18.90;;;3.40;96.80;;;;;;4931855;29;20031;-63
2021/12/12 06:57:47;;;;;;;30.40;18.52;;;3.40;96.70;;;;;;4933876;29;20050;-63
2021/12/12 07:00:19;;;;;;;31.23;18.10;;;3.30;96.70;;;;;;4933027;29;20067;-63
2021/12/12 07:02:45;;;;;;;30.17;18.25;;;3.30;96.70;;;;;;4932674;28;20107;-63
2021/12/12 07:05:18;;;;;;;30.65;17.48;;;3.30;96.70;;;;;;4932715;29;20028;-63
2021/12/12 07:07:46;;;;;;;30.92;18.38;;;3.30;96.70;;;;;;4933727;29;20160;-63
2021/12/12 07:10:15;;;;;;;33.97;18.00;;;3.30;96.70;;;;;;4931970;29;20039;-63
2021/12/12 07:12:42;;;;;;;30.95;18.10;;;3.30;96.70;;;;;;4933406;29;20078;-63
2021/12/12 07:15:10;;;;;;;30.15;18.90;;;3.30;96.70;;;;;;4931975;29;20098;-63
2021/12/12 07:17:36;;;;;;;28.70;17.75;;;3.30;96.70;;;;;;4934722;29;20114;-63
2021/12/12 07:20:05;;;;;;;30.92;18.42;;;3.30;96.80;;;;;;4935258;29;20071;-63
2021/12/12 07:22:31;;;;;;;31.45;19.65;;;3.20;96.70;;;;;;4936020;29;20110;-63
2021/12/12 07:25:00;;;;;;;31.67;18.52;;;3.20;96.70;;;;;;4935617;29;20035;-63
2021/12/12 07:27:26;;;;;;;34.35;18.98;;;3.20;96.70;;;;;;4936377;29;20032;-63
2021/12/12 07:29:55;;;;;;;35.67;19.50;;;3.20;96.80;;;;;;4936809;29;20038;-63
2021/12/12 07:32:20;;;;;;;36.05;19.25;;;3.20;96.80;;;;;;4935896;29;20050;-63
2021/12/12 07:34:46;;;;;;;33.40;18.95;;;3.20;96.80;;;;;;4936857;28;20035;-63
2021/12/12 07:37:12;;;;;;;33.15;19.25;;;3.20;96.80;;;;;;4936315;29;20040;-63
2021/12/12 07:39:40;;;;;;;35.38;19.70;;;3.20;96.80;;;;;;4935822;29;20068;-63
2021/12/12 07:42:07;;;;;;;32.50;19.58;;;3.20;96.80;;;;;;4935043;29;20061;-63
2021/12/12 07:44:35;;;;;;;32.20;19.17;;;3.20;97.10;;;;;;4939170;29;20035;-63
2021/12/12 07:47:02;;;;;;;36.60;19.35;;;3.30;96.90;;;;;;4934707;29;20074;-62
2021/12/12 07:49:37;;;;;;;32.72;19.65;;;3.30;96.80;;;;;;4936635;29;20035;-62
2021/12/12 07:52:05;;;;;;;39.03;21.83;;;3.30;96.80;;;;;;4949985;28;20051;-64
2021/12/12 07:54:31;;;;;;;31.70;18.60;;;3.30;96.80;;;;;;4935839;29;20488;-64
2021/12/12 07:56:57;;;;;;;35.08;21.02;;;3.30;96.90;;;;;;4935226;29;20113;-64
2021/12/12 07:59:23;;;;;;;33.90;20.10;;;3.30;96.90;;;;;;4933992;29;20578;-63
2021/12/12 08:01:50;;;;;;;33.45;18.67;;;3.30;96.90;;;;;;4929391;29;20027;-63
2021/12/12 08:04:21;;;;;;;35.28;19.83;;;3.30;96.90;;;;;;4937874;29;20056;-64
2021/12/12 08:06:47;;;;;;;33.40;20.30;;;3.40;97.00;;;;;;4931980;29;20024;-64
2021/12/12 08:09:13;;;;;;;38.35;19.42;;;3.40;97.00;;;;;;4930054;29;20039;-64
2021/12/12 08:11:42;;;;;;;36.97;20.40;;;3.40;97.00;;;;;;4932064;29;20180;-63
2021/12/12 08:14:14;;;;;;;36.00;19.90;;;3.40;97.00;;;;;;4931163;29;20030;-64
2021/12/12 08:16:40;;;;;;;31.27;18.98;;;3.40;97.00;;;;;;4928595;29;20043;-63
2021/12/12 08:19:06;;;;;;;33.95;20.38;;;3.40;97.00;;;;;;4928198;29;20059;-64
2021/12/12 08:21:33;;;;;;;33.30;20.42;;;3.50;97.10;;;;;;4929766;29;20060;-63
2021/12/12 08:24:03;;;;;;;39.05;22.42;;;3.50;97.00;;;;;;4931440;29;20091;-63
2021/12/12 08:26:29;;;;;;;33.95;19.35;;;3.50;97.00;;;;;;4929951;29;20040;-63
2021/12/12 08:28:55;;;;;;;41.50;21.35;;;3.50;97.00;;;;;;4928032;29;20050;-63
2021/12/12 08:31:21;;;;;;;31.00;17.63;;;3.60;97.10;;;;;;4926577;29;20043;-64
2021/12/12 08:33:47;;;;;;;33.58;19.98;;;3.60;97.10;;;;;;4929971;29;20102;-63
2021/12/12 08:36:15;;;;;;;34.95;18.95;;;3.60;97.00;;;;;;4929563;29;20166;-63
2021/12/12 08:38:41;;;;;;;36.78;22.45;;;3.60;97.00;;;;;;4925329;29;20615;-63
2021/12/12 08:41:07;;;;;;;33.03;19.55;;;3.60;97.00;;;;;;4929837;29;20131;-63
2021/12/12 08:43:34;;;;;;;34.78;20.98;;;3.70;97.10;;;;;;4931364;29;20428;-63
2021/12/12 08:46:05;;;;;;;36.03;21.13;;;3.60;97.00;;;;;;4926025;29;20024;-64
2021/12/12 08:48:33;;;;;;;35.40;19.58;;;3.70;97.10;;;;;;4929589;29;20054;-63
2021/12/12 08:51:03;;;;;;;31.27;18.85;;;3.80;97.10;;;;;;4928086;29;20055;-64
2021/12/12 08:53:29;;;;;;;35.55;19.60;;;3.80;97.10;;;;;;4929814;29;20213;-64
2021/12/12 08:55:57;;;;;;;35.00;20.00;;;3.90;97.10;;;;;;4926165;29;20063;-64
2021/12/12 08:58:27;;;;;;;36.67;19.00;;;3.90;97.10;;;;;;4929275;29;20036;-63
2021/12/12 09:01:18;;;;;;;31.00;18.00;;;3.90;97.10;;;;;;4925257;29;20716;-63
2021/12/12 09:04:00;;;;;;;31.48;17.85;;;4.00;97.20;;;;;;4928595;29;20032;-63
2021/12/12 09:06:35;;;;;;;30.40;17.40;;;4.00;97.10;;;;;;4925739;29;20494;-63
2021/12/12 09:09:17;;;;;;;33.17;19.38;;;4.10;97.20;;;;;;4928215;29;20107;-64
2021/12/12 09:12:12;;;;;;;33.75;19.65;;;4.10;97.10;;;;;;4931149;29;20040;-63
2021/12/12 09:15:08;;;;;;;32.67;20.10;;;4.10;97.10;;;;;;4926608;29;20102;-63
2021/12/12 09:17:41;;;;;;;32.80;19.45;;;4.20;97.10;;;;;;4933656;29;20516;-63
2021/12/12 09:20:31;;;;;;;34.83;19.48;;;4.20;97.20;;;;;;4931710;29;20055;-63
2021/12/12 09:23:07;;;;;;;30.83;17.80;;;4.20;97.20;;;;;;4928731;29;20174;-64
2021/12/12 09:25:50;;;;;;;30.80;17.88;;;4.30;97.20;;;;;;4926767;29;20078;-63
2021/12/12 09:28:23;;;;;;;32.45;18.10;;;4.30;97.10;;;;;;4926672;29;20086;-63
2021/12/12 09:30:50;;;;;;;31.33;17.65;;;4.30;97.10;;;;;;4928763;29;20024;-63
2021/12/12 09:33:32;;;;;;;28.60;17.73;;;4.40;97.10;;;;;;4928619;28;20110;-63
2021/12/12 09:36:09;;;;;;;30.25;17.52;;;4.40;97.20;;;;;;4927730;29;20106;-63
2021/12/12 09:38:51;;;;;;;32.83;17.90;;;4.50;97.20;;;;;;4928954;29;20050;-64
2021/12/12 09:41:31;;;;;;;31.08;18.33;;;4.60;97.20;;;;;;4926711;29;20019;-63
2021/12/12 09:44:13;;;;;;;31.25;18.08;;;4.60;97.10;;;;;;4925556;29;20040;-64
2021/12/12 09:47:36;;;;;;;30.45;17.55;;;4.60;97.10;;;;;;4923853;29;20036;-63
2021/12/12 09:53:20;;;;;;;28.52;17.17;;;4.70;97.10;;;;;;4926379;29;20106;-63
2021/12/12 09:56:07;;;;;;;31.65;19.13;;;4.80;97.10;;;;;;4923482;29;20127;-63
2021/12/12 09:59:01;;;;;;;27.80;17.50;;;4.80;97.10;;;;;;4931374;29;20480;-63
2021/12/12 10:01:36;;;;;;;32.38;17.98;;;4.80;97.10;;;;;;4929312;29;20047;-63
2021/12/12 10:04:24;;;;;;;30.10;17.30;;;4.80;97.10;;;;;;4932064;29;20032;-63
2021/12/12 10:07:09;;;;;;;34.80;19.17;;;4.90;97.10;;;;;;4926746;29;20063;-64
2021/12/12 10:09:55;;;;;;;32.70;17.98;;;4.90;97.00;;;;;;4927368;29;20028;-63
2021/12/12 10:12:25;;;;;;;31.25;18.25;;;4.90;97.10;;;;;;4942357;28;20126;-64
2021/12/12 10:15:04;;;;;;;32.55;18.80;;;5.00;97.10;;;;;;4929388;29;20038;-63
2021/12/12 10:18:01;;;;;;;32.55;17.35;;;5.00;97.10;;;;;;4930995;29;20040;-63
2021/12/12 10:20:36;;;;;;;32.45;17.98;;;5.10;97.00;;;;;;4931846;29;20075;-63
2021/12/12 10:23:36;;;;;;;32.72;19.08;;;5.10;97.00;;;;;;4940750;29;20023;-62
2021/12/12 10:26:15;;;;;;;34.83;19.50;;;5.20;97.00;;;;;;4933962;29;20091;-63
2021/12/12 10:28:53;;;;;;;29.60;17.98;;;5.20;97.00;;;;;;4915979;29;20072;-64
2021/12/12 10:31:30;;;;;;;28.45;17.88;;;5.20;97.00;;;;;;4926010;29;20028;-64
2021/12/12 10:34:20;;;;;;;31.92;17.63;;;5.20;97.00;;;;;;4929172;29;20116;-63
2021/12/12 10:36:56;;;;;;;30.85;16.75;;;5.20;97.00;;;;;;4931144;29;20055;-65
2021/12/12 10:39:41;;;;;;;31.17;18.10;;;5.20;97.00;;;;;;4934007;29;20627;-65
2021/12/12 10:42:14;;;;;;;32.20;18.42;;;5.20;97.00;;;;;;4934083;29;20290;-65
2021/12/12 10:45:00;;;;;;;31.98;18.33;;;5.20;97.10;;;;;;4930826;29;20031;-64
2021/12/12 10:47:46;;;;;;;37.45;19.38;;;5.30;97.10;;;;;;4932615;29;20039;-64
2021/12/12 10:50:31;;;;;;;36.35;19.88;;;5.30;97.10;;;;;;4929351;29;20067;-65
2021/12/12 10:53:22;;;;;;;29.42;17.10;;;5.30;97.30;;;;;;4933605;29;20106;-65
2021/12/12 10:56:44;;;;;;;34.65;20.20;;;5.40;97.30;;;;;;4931012;29;20058;-64
2021/12/12 10:59:19;;;;;;;32.53;17.48;;;5.40;97.20;;;;;;4874928;29;20139;-64
2021/12/12 11:01:48;;;;;;;33.30;18.10;;;5.40;97.20;;;;;;4855773;29;20112;-64
2021/12/12 11:04:23;;;;;;;32.83;18.20;;;5.40;97.20;;;;;;4906767;29;20040;-64
2021/12/12 11:06:55;;;;;;;34.17;19.02;;;5.40;97.20;;;;;;4937283;29;20028;-65
2021/12/12 11:09:34;;;;;;;33.28;18.73;;;5.40;97.10;;;;;;4937856;29;20044;-65
2021/12/12 11:12:12;;;;;;;33.20;18.38;;;5.50;97.20;;;;;;4937215;29;20027;-65
2021/12/12 11:15:24;;;;;;;28.67;16.85;;;5.50;97.30;;;;;;4937328;29;20034;-65
2021/12/12 11:18:06;;;;;;;32.15;17.90;;;5.50;97.20;;;;;;4876334;29;20035;-65
2021/12/12 11:20:41;;;;;;;34.38;18.50;;;5.60;97.20;;;;;;4876107;29;20041;-66
2021/12/12 11:23:35;;;;;;;32.63;18.40;;;5.60;97.20;;;;;;4910778;29;20057;-67
2021/12/12 11:26:08;;;;;;;29.52;17.63;;;5.60;97.20;;;;;;4932348;29;20127;-66
2021/12/12 11:28:41;;;;;;;35.63;19.70;;;5.60;97.10;;;;;;4930349;29;20440;-64
2021/12/12 11:31:24;;;;;;;33.47;19.00;;;5.60;97.10;;;;;;4931043;29;20032;-67
2021/12/12 11:33:52;;;;;;;31.77;16.83;;;5.70;97.10;;;;;;4930542;29;20035;-66
2021/12/12 11:36:27;;;;;;;33.90;19.67;;;5.70;97.10;;;;;;4928406;29;20027;-66
2021/12/12 11:39:14;;;;;;;30.88;17.67;;;5.60;97.00;;;;;;4927042;29;20043;-66
2021/12/12 11:41:57;;;;;;;35.78;18.63;;;5.70;97.00;;;;;;4934461;29;20094;-66
2021/12/12 11:44:31;;;;;;;30.10;16.73;;;5.70;97.20;;;;;;4931697;29;20111;-66
2021/12/12 11:47:15;;;;;;;30.98;16.85;;;5.70;97.00;;;;;;4930982;29;20496;-66
2021/12/12 11:50:12;;;;;;;31.38;16.95;;;5.70;97.00;;;;;;4945475;29;20069;-66
2021/12/12 11:52:55;;;;;;;32.75;17.05;;;5.70;97.00;;;;;;4929225;29;20063;-64
2021/12/12 11:55:29;;;;;;;29.98;18.00;;;5.70;97.00;;;;;;4931880;29;20391;-64
2021/12/12 11:58:18;;;;;;;33.85;18.17;;;5.70;97.00;;;;;;4928757;29;20243;-66
2021/12/12 12:00:59;;;;;;;27.58;16.05;;;5.80;97.00;;;;;;4931878;29;20746;-65
2021/12/12 12:03:29;;;;;;;33.45;18.50;;;5.80;96.90;;;;;;4930596;29;20130;-64
2021/12/12 12:06:23;;;;;;;31.15;16.70;;;5.80;97.00;;;;;;4928590;29;20368;-66
2021/12/12 12:09:07;;;;;;;34.95;17.40;;;5.80;97.00;;;;;;4933638;29;20036;-65
2021/12/12 12:12:08;;;;;;;26.77;16.15;;;5.80;97.00;;;;;;4931326;29;20039;-67
2021/12/12 12:15:16;;;;;;;26.20;15.32;;;5.80;97.00;;;;;;4931424;29;20031;-66
2021/12/12 12:17:55;;;;;;;29.00;15.65;;;5.80;97.00;;;;;;4930852;29;20096;-66
2021/12/12 12:20:51;;;;;;;27.25;15.48;;;5.80;97.00;;;;;;4928332;29;20039;-66
2021/12/12 12:23:48;;;;;;;26.35;15.25;;;5.80;97.00;;;;;;4929976;29;20130;-66
2021/12/12 12:29:30;;;;;;;28.08;14.73;;;5.90;97.00;;;;;;4932510;29;20032;-66
2021/12/12 12:32:21;;;;;;;24.58;15.52;;;6.00;97.00;;;;;;4928450;29;20032;-66
2021/12/12 12:35:24;;;;;;;27.52;16.27;;;6.00;97.00;;;;;;4932685;29;20467;-64
2021/12/12 12:38:27;;;;;;;23.67;14.90;;;6.10;97.00;;;;;;4928377;29;20036;-66
2021/12/12 12:41:30;;;;;;;26.45;15.77;;;6.10;97.00;;;;;;4931698;29;20067;-66
2021/12/12 12:44:17;;;;;;;25.88;14.60;;;6.20;96.90;;;;;;4932873;29;20030;-66
2021/12/12 12:47:32;;;;;;;28.30;15.18;;;6.20;96.90;;;;;;4934728;29;20110;-66
2021/12/12 12:50:35;;;;;;;26.40;15.15;;;6.30;96.80;;;;;;4935679;29;20066;-65
2021/12/12 12:53:23;;;;;;;24.63;14.27;;;6.30;96.70;;;;;;4934399;29;20052;-65
2021/12/12 12:56:15;;;;;;;25.20;14.07;;;6.30;96.70;;;;;;4934657;29;20101;-66
2021/12/12 12:59:17;;;;;;;25.90;15.35;;;6.30;96.70;;;;;;4935043;29;20150;-65
2021/12/12 13:01:53;;;;;;;24.13;13.43;;;6.30;96.70;;;;;;4933786;29;20091;-66
2021/12/12 13:04:32;;;;;;;22.92;14.20;;;6.30;96.70;;;;;;4927958;29;20197;-65
2021/12/12 13:07:14;;;;;;;20.85;13.35;;;6.30;96.70;;;;;;4929834;29;20083;-66
2021/12/12 13:09:48;;;;;;;26.65;14.57;;;6.30;96.60;;;;;;4929689;29;20024;-65
2021/12/12 13:12:35;;;;;;;24.65;14.32;;;6.30;96.60;;;;;;4930659;29;20190;-66
2021/12/12 13:15:22;;;;;;;22.30;13.45;;;6.20;96.60;;;;;;4925436;29;20115;-66
2021/12/12 13:18:06;;;;;;;23.05;13.80;;;6.20;96.60;;;;;;4930322;29;20124;-66
2021/12/12 13:20:52;;;;;;;23.25;13.80;;;6.20;96.60;;;;;;4926773;29;20035;-66
2021/12/12 13:23:38;;;;;;;23.08;13.48;;;6.20;96.60;;;;;;4926872;29;20020;-66
2021/12/12 13:26:11;;;;;;;21.48;12.18;;;6.20;96.60;;;;;;4897055;29;20538;-66
2021/12/12 13:29:07;;;;;;;28.05;13.73;;;6.20;96.60;;;;;;4930566;29;20058;-66
2021/12/12 13:31:40;;;;;;;23.83;13.32;;;6.10;96.70;;;;;;4928787;29;20038;-66
2021/12/12 13:34:14;;;;;;;23.52;13.00;;;6.10;96.60;;;;;;4929494;29;20039;-66
2021/12/12 13:36:55;;;;;;;;;;;6.10;96.60;;;;;;4929618;29;20044;-66
2021/12/12 13:39:40;;;;;;;22.95;12.45;;;6.00;96.60;;;;;;4925464;29;19938;-67